sensor_id;sensor_type;location;lat;lon;timestamp;pressure;altitude;pressure_sealevel;temperature;humidity
4617;BME280;2321;42.704;23.384;2022-07-06T00:02:20;95388.50;;;21.95;nan
4617;BME280;2321;42.704;23.384;2022-07-06T00:04:47;95388.75;;;21.94;nan
4617;BME280;2321;42.704;23.384;2022-07-06T00:07:14;95394.94;;;21.89;nan
4617;BME280;2321;42.704;23.384;2022-07-06T00:09:42;95387.66;;;21.95;nan
4617;BME280;2321;42.704;23.384;2022-07-06T00:12:10;95404.47;;;21.92;nan
4617;BME280;2321;42.704;23.384;2022-07-06T00:14:37;95411.50;;;21.93;nan
4617;BME280;2321;42.704;23.384;2022-07-06T00:17:03;95406.59;;;21.90;nan
4617;BME280;2321;42.704;23.384;2022-07-06T00:19:30;95398.13;;;21.75;nan
4617;BME280;2321;42.704;23.384;2022-07-06T00:21:57;95391.56;;;21.61;nan
4617;BME280;2321;42.704;23.384;2022-07-06T00:24:24;95392.31;;;21.56;nan
4617;BME280;2321;42.704;23.384;2022-07-06T00:26:53;95402.94;;;21.63;nan
4617;BME280;2321;42.704;23.384;2022-07-06T00:29:19;95411.66;;;21.70;nan
4617;BME280;2321;42.704;23.384;2022-07-06T00:31:46;95405.13;;;21.71;nan
4617;BME280;2321;42.704;23.384;2022-07-06T00:34:13;95413.22;;;21.61;nan
4617;BME280;2321;42.704;23.384;2022-07-06T00:36:40;95415.94;;;21.61;nan
4617;BME280;2321;42.704;23.384;2022-07-06T00:39:07;95412.69;;;21.64;nan
4617;BME280;2321;42.704;23.384;2022-07-06T00:41:34;95406.22;;;21.70;nan
4617;BME280;2321;42.704;23.384;2022-07-06T00:44:07;95403.50;;;21.65;nan
4617;BME280;2321;42.704;23.384;2022-07-06T00:46:34;95413.84;;;21.79;nan
4617;BME280;2321;42.704;23.384;2022-07-06T00:49:01;95420.69;;;21.86;nan
4617;BME280;2321;42.704;23.384;2022-07-06T00:51:29;95423.31;;;21.76;nan
4617;BME280;2321;42.704;23.384;2022-07-06T00:53:59;95421.91;;;21.68;nan
4617;BME280;2321;42.704;23.384;2022-07-06T00:56:29;95411.34;;;21.61;nan
4617;BME280;2321;42.704;23.384;2022-07-06T00:58:56;95419.16;;;21.58;nan
4617;BME280;2321;42.704;23.384;2022-07-06T01:01:24;95406.41;;;21.53;nan
4617;BME280;2321;42.704;23.384;2022-07-06T01:03:51;95397.19;;;21.49;nan
4617;BME280;2321;42.704;23.384;2022-07-06T01:06:18;95384.47;;;21.49;nan
4617;BME280;2321;42.704;23.384;2022-07-06T01:08:46;95379.06;;;21.49;nan
4617;BME280;2321;42.704;23.384;2022-07-06T01:11:13;95373.03;;;21.37;nan
4617;BME280;2321;42.704;23.384;2022-07-06T01:13:40;95366.75;;;21.31;nan
4617;BME280;2321;42.704;23.384;2022-07-06T01:16:07;95372.72;;;21.33;nan
4617;BME280;2321;42.704;23.384;2022-07-06T01:18:36;95362.72;;;21.33;nan
4617;BME280;2321;42.704;23.384;2022-07-06T01:21:10;95364.81;;;21.26;nan
4617;BME280;2321;42.704;23.384;2022-07-06T01:23:41;95363.53;;;21.34;nan
4617;BME280;2321;42.704;23.384;2022-07-06T01:26:10;95360.31;;;21.42;nan
4617;BME280;2321;42.704;23.384;2022-07-06T01:28:37;95369.28;;;21.48;nan
4617;BME280;2321;42.704;23.384;2022-07-06T01:31:04;95367.41;;;21.54;nan
4617;BME280;2321;42.704;23.384;2022-07-06T01:33:32;95359.50;;;21.42;nan
4617;BME280;2321;42.704;23.384;2022-07-06T01:35:58;95360.03;;;21.39;nan
4617;BME280;2321;42.704;23.384;2022-07-06T01:38:27;95359.78;;;21.40;nan
4617;BME280;2321;42.704;23.384;2022-07-06T01:40:54;95367.63;;;21.47;nan
4617;BME280;2321;42.704;23.384;2022-07-06T01:43:20;95367.69;;;21.58;nan
4617;BME280;2321;42.704;23.384;2022-07-06T01:45:47;95363.34;;;21.51;nan
4617;BME280;2321;42.704;23.384;2022-07-06T01:48:14;95366.34;;;21.55;nan
4617;BME280;2321;42.704;23.384;2022-07-06T01:50:41;95359.00;;;21.50;nan
4617;BME280;2321;42.704;23.384;2022-07-06T01:53:08;95362.28;;;21.52;nan
4617;BME280;2321;42.704;23.384;2022-07-06T01:55:37;95373.66;;;21.60;nan
4617;BME280;2321;42.704;23.384;2022-07-06T01:58:04;95380.19;;;21.59;nan
4617;BME280;2321;42.704;23.384;2022-07-06T02:00:31;95375.75;;;21.42;nan
4617;BME280;2321;42.704;23.384;2022-07-06T02:02:58;95383.88;;;21.42;nan
4617;BME280;2321;42.704;23.384;2022-07-06T02:05:25;95392.53;;;21.39;nan
4617;BME280;2321;42.704;23.384;2022-07-06T02:07:52;95391.13;;;21.31;nan
4617;BME280;2321;42.704;23.384;2022-07-06T02:10:19;95389.19;;;21.26;nan
4617;BME280;2321;42.704;23.384;2022-07-06T02:12:47;95386.72;;;21.19;nan
4617;BME280;2321;42.704;23.384;2022-07-06T02:15:14;95387.22;;;21.16;nan
4617;BME280;2321;42.704;23.384;2022-07-06T02:17:41;95394.81;;;21.14;nan
4617;BME280;2321;42.704;23.384;2022-07-06T02:20:09;95388.19;;;20.99;nan
4617;BME280;2321;42.704;23.384;2022-07-06T02:22:36;95388.09;;;20.89;nan
4617;BME280;2321;42.704;23.384;2022-07-06T02:25:03;95369.41;;;20.82;nan
4617;BME280;2321;42.704;23.384;2022-07-06T02:27:30;95376.53;;;20.99;nan
4617;BME280;2321;42.704;23.384;2022-07-06T02:29:58;95382.59;;;21.06;nan
4617;BME280;2321;42.704;23.384;2022-07-06T02:32:25;95377.59;;;20.98;nan
4617;BME280;2321;42.704;23.384;2022-07-06T02:34:52;95375.91;;;20.86;nan
4617;BME280;2321;42.704;23.384;2022-07-06T02:37:19;95379.63;;;20.80;nan
4617;BME280;2321;42.704;23.384;2022-07-06T02:39:46;95373.75;;;20.88;nan
4617;BME280;2321;42.704;23.384;2022-07-06T02:42:13;95382.34;;;20.80;nan
4617;BME280;2321;42.704;23.384;2022-07-06T02:44:40;95382.13;;;20.87;nan
4617;BME280;2321;42.704;23.384;2022-07-06T02:47:08;95378.38;;;20.88;nan
4617;BME280;2321;42.704;23.384;2022-07-06T02:49:35;95379.41;;;20.82;nan
4617;BME280;2321;42.704;23.384;2022-07-06T02:52:02;95379.09;;;20.78;nan
4617;BME280;2321;42.704;23.384;2022-07-06T02:54:29;95384.72;;;20.71;nan
4617;BME280;2321;42.704;23.384;2022-07-06T02:56:56;95393.66;;;20.72;nan
4617;BME280;2321;42.704;23.384;2022-07-06T02:59:23;95396.59;;;20.70;nan
4617;BME280;2321;42.704;23.384;2022-07-06T03:01:50;95394.25;;;20.79;nan
4617;BME280;2321;42.704;23.384;2022-07-06T03:04:18;95386.38;;;20.77;nan
4617;BME280;2321;42.704;23.384;2022-07-06T03:06:45;95384.47;;;20.73;nan
4617;BME280;2321;42.704;23.384;2022-07-06T03:09:12;95382.81;;;20.72;nan
4617;BME280;2321;42.704;23.384;2022-07-06T03:11:39;95384.69;;;20.66;nan
4617;BME280;2321;42.704;23.384;2022-07-06T03:14:06;95387.69;;;20.70;nan
4617;BME280;2321;42.704;23.384;2022-07-06T03:16:33;95383.06;;;20.70;nan
4617;BME280;2321;42.704;23.384;2022-07-06T03:19:00;95387.97;;;20.73;nan
4617;BME280;2321;42.704;23.384;2022-07-06T03:21:28;95387.44;;;20.76;nan
4617;BME280;2321;42.704;23.384;2022-07-06T03:23:55;95383.66;;;20.72;nan
4617;BME280;2321;42.704;23.384;2022-07-06T03:26:22;95389.75;;;20.57;nan
4617;BME280;2321;42.704;23.384;2022-07-06T03:28:49;95398.69;;;20.57;nan
4617;BME280;2321;42.704;23.384;2022-07-06T03:31:15;95405.97;;;20.57;nan
4617;BME280;2321;42.704;23.384;2022-07-06T03:33:42;95401.75;;;20.39;nan
4617;BME280;2321;42.704;23.384;2022-07-06T03:36:09;95412.09;;;20.47;nan
4617;BME280;2321;42.704;23.384;2022-07-06T03:38:38;95407.50;;;20.48;nan
4617;BME280;2321;42.704;23.384;2022-07-06T03:41:05;95411.03;;;20.48;nan
4617;BME280;2321;42.704;23.384;2022-07-06T03:43:31;95408.84;;;20.45;nan
4617;BME280;2321;42.704;23.384;2022-07-06T03:45:58;95403.34;;;20.40;nan
4617;BME280;2321;42.704;23.384;2022-07-06T03:48:25;95410.69;;;20.39;nan
4617;BME280;2321;42.704;23.384;2022-07-06T03:50:52;95411.69;;;20.33;nan
4617;BME280;2321;42.704;23.384;2022-07-06T03:53:19;95413.81;;;20.31;nan
4617;BME280;2321;42.704;23.384;2022-07-06T03:55:48;95415.47;;;20.32;nan
4617;BME280;2321;42.704;23.384;2022-07-06T03:58:28;95422.00;;;20.36;nan
4617;BME280;2321;42.704;23.384;2022-07-06T04:00:55;95410.09;;;20.37;nan
4617;BME280;2321;42.704;23.384;2022-07-06T04:03:22;95419.03;;;20.38;nan
4617;BME280;2321;42.704;23.384;2022-07-06T04:05:49;95420.41;;;20.40;nan
4617;BME280;2321;42.704;23.384;2022-07-06T04:08:16;95413.38;;;20.39;nan
4617;BME280;2321;42.704;23.384;2022-07-06T04:10:43;95415.34;;;20.49;nan
4617;BME280;2321;42.704;23.384;2022-07-06T04:13:11;95418.31;;;20.48;nan
4617;BME280;2321;42.704;23.384;2022-07-06T04:15:38;95422.41;;;20.50;nan
4617;BME280;2321;42.704;23.384;2022-07-06T04:18:05;95418.28;;;20.42;nan
4617;BME280;2321;42.704;23.384;2022-07-06T04:20:32;95426.81;;;20.34;nan
4617;BME280;2321;42.704;23.384;2022-07-06T04:22:59;95427.41;;;20.36;nan
4617;BME280;2321;42.704;23.384;2022-07-06T04:25:27;95430.03;;;20.31;nan
4617;BME280;2321;42.704;23.384;2022-07-06T04:27:54;95424.81;;;20.24;nan
4617;BME280;2321;42.704;23.384;2022-07-06T04:30:22;95433.38;;;20.16;nan
4617;BME280;2321;42.704;23.384;2022-07-06T04:32:49;95439.59;;;20.16;nan
4617;BME280;2321;42.704;23.384;2022-07-06T04:35:16;95425.84;;;20.18;nan
4617;BME280;2321;42.704;23.384;2022-07-06T04:37:43;95437.47;;;20.18;nan
4617;BME280;2321;42.704;23.384;2022-07-06T04:40:11;95432.56;;;20.15;nan
4617;BME280;2321;42.704;23.384;2022-07-06T04:42:38;95438.09;;;20.25;nan
4617;BME280;2321;42.704;23.384;2022-07-06T04:45:06;95444.00;;;20.22;nan
4617;BME280;2321;42.704;23.384;2022-07-06T04:47:34;95449.91;;;20.19;nan
4617;BME280;2321;42.704;23.384;2022-07-06T04:50:01;95446.91;;;20.16;nan
4617;BME280;2321;42.704;23.384;2022-07-06T04:52:28;95454.78;;;20.17;nan
4617;BME280;2321;42.704;23.384;2022-07-06T04:54:55;95448.00;;;20.14;nan
4617;BME280;2321;42.704;23.384;2022-07-06T04:57:22;95462.75;;;20.12;nan
4617;BME280;2321;42.704;23.384;2022-07-06T04:59:51;95462.75;;;20.12;nan
4617;BME280;2321;42.704;23.384;2022-07-06T05:02:18;95465.81;;;20.16;nan
4617;BME280;2321;42.704;23.384;2022-07-06T05:04:46;95465.47;;;20.12;nan
4617;BME280;2321;42.704;23.384;2022-07-06T05:07:13;95463.75;;;20.23;nan
4617;BME280;2321;42.704;23.384;2022-07-06T05:09:40;95480.19;;;20.21;nan
4617;BME280;2321;42.704;23.384;2022-07-06T05:12:08;95469.22;;;20.28;nan
4617;BME280;2321;42.704;23.384;2022-07-06T05:14:35;95480.38;;;20.37;nan
4617;BME280;2321;42.704;23.384;2022-07-06T05:17:02;95472.09;;;20.44;nan
4617;BME280;2321;42.704;23.384;2022-07-06T05:19:29;95477.34;;;20.56;nan
4617;BME280;2321;42.704;23.384;2022-07-06T05:21:58;95483.31;;;20.58;nan
4617;BME280;2321;42.704;23.384;2022-07-06T05:24:24;95485.56;;;20.66;nan
4617;BME280;2321;42.704;23.384;2022-07-06T05:26:51;95490.75;;;20.73;nan
4617;BME280;2321;42.704;23.384;2022-07-06T05:29:18;95490.47;;;20.70;nan
4617;BME280;2321;42.704;23.384;2022-07-06T05:31:45;95495.88;;;20.70;nan
4617;BME280;2321;42.704;23.384;2022-07-06T05:34:12;95496.16;;;20.73;nan
4617;BME280;2321;42.704;23.384;2022-07-06T05:36:39;95497.09;;;20.84;nan
4617;BME280;2321;42.704;23.384;2022-07-06T05:39:08;95497.84;;;20.79;nan
4617;BME280;2321;42.704;23.384;2022-07-06T05:41:35;95499.53;;;20.86;nan
4617;BME280;2321;42.704;23.384;2022-07-06T05:46:28;95505.06;;;20.96;nan
4617;BME280;2321;42.704;23.384;2022-07-06T05:48:55;95515.69;;;21.03;nan
4617;BME280;2321;42.704;23.384;2022-07-06T05:51:39;95510.03;;;21.05;nan
4617;BME280;2321;42.704;23.384;2022-07-06T05:54:07;95511.69;;;21.06;nan
4617;BME280;2321;42.704;23.384;2022-07-06T05:56:34;95517.63;;;21.08;nan
4617;BME280;2321;42.704;23.384;2022-07-06T05:59:01;95512.03;;;21.15;nan
4617;BME280;2321;42.704;23.384;2022-07-06T06:01:28;95505.56;;;21.21;nan
4617;BME280;2321;42.704;23.384;2022-07-06T06:03:55;95516.72;;;21.25;nan
4617;BME280;2321;42.704;23.384;2022-07-06T06:06:22;95518.44;;;21.41;nan
4617;BME280;2321;42.704;23.384;2022-07-06T06:08:49;95514.94;;;21.41;nan
4617;BME280;2321;42.704;23.384;2022-07-06T06:11:17;95517.63;;;21.41;nan
4617;BME280;2321;42.704;23.384;2022-07-06T06:13:44;95513.09;;;21.47;nan
4617;BME280;2321;42.704;23.384;2022-07-06T06:16:11;95513.66;;;21.54;nan
4617;BME280;2321;42.704;23.384;2022-07-06T06:18:38;95519.91;;;21.54;nan
4617;BME280;2321;42.704;23.384;2022-07-06T06:21:04;95518.56;;;21.57;nan
4617;BME280;2321;42.704;23.384;2022-07-06T06:23:31;95520.53;;;21.62;nan
4617;BME280;2321;42.704;23.384;2022-07-06T06:25:58;95509.94;;;21.65;nan
4617;BME280;2321;42.704;23.384;2022-07-06T06:28:26;95506.69;;;21.63;nan
4617;BME280;2321;42.704;23.384;2022-07-06T06:30:53;95513.19;;;21.62;nan
4617;BME280;2321;42.704;23.384;2022-07-06T06:33:20;95508.59;;;21.63;nan
4617;BME280;2321;42.704;23.384;2022-07-06T06:35:49;95518.13;;;21.71;nan
4617;BME280;2321;42.704;23.384;2022-07-06T06:38:17;95509.22;;;21.75;nan
4617;BME280;2321;42.704;23.384;2022-07-06T06:40:44;95508.09;;;21.71;nan
4617;BME280;2321;42.704;23.384;2022-07-06T06:43:11;95505.34;;;21.66;nan
4617;BME280;2321;42.704;23.384;2022-07-06T06:45:40;95512.72;;;21.71;nan
4617;BME280;2321;42.704;23.384;2022-07-06T06:48:07;95504.84;;;21.69;nan
4617;BME280;2321;42.704;23.384;2022-07-06T06:50:34;95504.81;;;21.64;nan
4617;BME280;2321;42.704;23.384;2022-07-06T06:53:02;95505.16;;;21.78;nan
4617;BME280;2321;42.704;23.384;2022-07-06T06:55:29;95501.19;;;21.91;nan
4617;BME280;2321;42.704;23.384;2022-07-06T06:57:56;95499.84;;;21.94;nan
4617;BME280;2321;42.704;23.384;2022-07-06T07:00:23;95499.56;;;21.90;nan
4617;BME280;2321;42.704;23.384;2022-07-06T07:02:51;95499.34;;;21.97;nan
4617;BME280;2321;42.704;23.384;2022-07-06T07:05:18;95502.66;;;22.09;nan
4617;BME280;2321;42.704;23.384;2022-07-06T07:07:45;95498.59;;;22.12;nan
4617;BME280;2321;42.704;23.384;2022-07-06T07:10:12;95490.75;;;22.21;nan
4617;BME280;2321;42.704;23.384;2022-07-06T07:12:46;95494.59;;;22.25;nan
4617;BME280;2321;42.704;23.384;2022-07-06T07:15:14;95497.88;;;22.38;nan
4617;BME280;2321;42.704;23.384;2022-07-06T07:17:41;95501.72;;;22.47;nan
4617;BME280;2321;42.704;23.384;2022-07-06T07:20:10;95511.75;;;22.52;nan
4617;BME280;2321;42.704;23.384;2022-07-06T07:22:37;95508.75;;;22.48;nan
4617;BME280;2321;42.704;23.384;2022-07-06T07:25:05;95501.97;;;22.51;nan
4617;BME280;2321;42.704;23.384;2022-07-06T07:27:33;95493.06;;;22.56;nan
4617;BME280;2321;42.704;23.384;2022-07-06T07:29:59;95503.41;;;22.69;nan
4617;BME280;2321;42.704;23.384;2022-07-06T07:32:26;95508.81;;;22.59;nan
4617;BME280;2321;42.704;23.384;2022-07-06T07:34:53;95506.34;;;22.57;nan
4617;BME280;2321;42.704;23.384;2022-07-06T07:37:22;95500.41;;;22.66;nan
4617;BME280;2321;42.704;23.384;2022-07-06T07:39:48;95500.16;;;22.72;nan
4617;BME280;2321;42.704;23.384;2022-07-06T07:42:15;95502.09;;;22.77;nan
4617;BME280;2321;42.704;23.384;2022-07-06T07:44:42;95504.53;;;22.73;nan
4617;BME280;2321;42.704;23.384;2022-07-06T07:47:09;95498.31;;;22.83;nan
4617;BME280;2321;42.704;23.384;2022-07-06T07:49:36;95503.72;;;22.83;nan
4617;BME280;2321;42.704;23.384;2022-07-06T07:52:03;95496.69;;;22.88;nan
4617;BME280;2321;42.704;23.384;2022-07-06T07:54:31;95495.06;;;23.02;nan
4617;BME280;2321;42.704;23.384;2022-07-06T07:56:58;95501.56;;;23.06;nan
4617;BME280;2321;42.704;23.384;2022-07-06T07:59:25;95496.16;;;23.06;nan
4617;BME280;2321;42.704;23.384;2022-07-06T08:01:52;95492.91;;;23.15;nan
4617;BME280;2321;42.704;23.384;2022-07-06T08:04:19;95495.06;;;23.23;nan
4617;BME280;2321;42.704;23.384;2022-07-06T08:06:46;95486.38;;;23.32;nan
4617;BME280;2321;42.704;23.384;2022-07-06T08:09:13;95492.91;;;23.41;nan
4617;BME280;2321;42.704;23.384;2022-07-06T08:11:43;95479.56;;;23.50;nan
4617;BME280;2321;42.704;23.384;2022-07-06T08:14:10;95486.63;;;23.72;nan
4617;BME280;2321;42.704;23.384;2022-07-06T08:16:39;95496.09;;;23.90;nan
4617;BME280;2321;42.704;23.384;2022-07-06T08:19:06;95492.56;;;23.95;nan
4617;BME280;2321;42.704;23.384;2022-07-06T08:21:33;95492.56;;;23.95;nan
4617;BME280;2321;42.704;23.384;2022-07-06T08:24:00;95490.94;;;23.83;nan
4617;BME280;2321;42.704;23.384;2022-07-06T08:26:28;95495.25;;;23.95;nan
4617;BME280;2321;42.704;23.384;2022-07-06T08:28:56;95496.63;;;24.03;nan
4617;BME280;2321;42.704;23.384;2022-07-06T08:31:23;95497.94;;;24.16;nan
4617;BME280;2321;42.704;23.384;2022-07-06T08:33:50;95495.22;;;24.16;nan
4617;BME280;2321;42.704;23.384;2022-07-06T08:36:19;95485.09;;;24.27;nan
4617;BME280;2321;42.704;23.384;2022-07-06T08:38:45;95488.84;;;24.52;nan
4617;BME280;2321;42.704;23.384;2022-07-06T08:41:14;95482.00;;;24.55;nan
4617;BME280;2321;42.704;23.384;2022-07-06T08:43:42;95486.03;;;24.63;nan
4617;BME280;2321;42.704;23.384;2022-07-06T08:46:13;95481.56;;;24.83;nan
4617;BME280;2321;42.704;23.384;2022-07-06T08:48:40;95482.53;;;25.02;nan
4617;BME280;2321;42.704;23.384;2022-07-06T08:51:08;95487.19;;;25.02;nan
4617;BME280;2321;42.704;23.384;2022-07-06T08:53:35;95486.72;;;24.89;nan
4617;BME280;2321;42.704;23.384;2022-07-06T08:56:03;95479.13;;;24.86;nan
4617;BME280;2321;42.704;23.384;2022-07-06T08:58:29;95484.25;;;24.88;nan
4617;BME280;2321;42.704;23.384;2022-07-06T09:01:02;95493.78;;;24.90;nan
4617;BME280;2321;42.704;23.384;2022-07-06T09:03:31;95490.78;;;24.92;nan
4617;BME280;2321;42.704;23.384;2022-07-06T09:06:00;95487.22;;;24.91;nan
4617;BME280;2321;42.704;23.384;2022-07-06T09:08:28;95485.03;;;24.94;nan
4617;BME280;2321;42.704;23.384;2022-07-06T09:10:57;95485.13;;;24.83;nan
4617;BME280;2321;42.704;23.384;2022-07-06T09:13:24;95486.16;;;24.87;nan
4617;BME280;2321;42.704;23.384;2022-07-06T09:15:51;95486.94;;;24.98;nan
4617;BME280;2321;42.704;23.384;2022-07-06T09:18:18;95484.81;;;24.90;nan
4617;BME280;2321;42.704;23.384;2022-07-06T09:20:48;95492.22;;;24.79;nan
4617;BME280;2321;42.704;23.384;2022-07-06T09:23:16;95483.66;;;24.56;nan
4617;BME280;2321;42.704;23.384;2022-07-06T09:25:47;95494.22;;;24.63;nan
4617;BME280;2321;42.704;23.384;2022-07-06T09:28:15;95490.25;;;24.39;nan
4617;BME280;2321;42.704;23.384;2022-07-06T09:30:42;95489.47;;;24.33;nan
4617;BME280;2321;42.704;23.384;2022-07-06T09:33:09;95490.53;;;24.37;nan
4617;BME280;2321;42.704;23.384;2022-07-06T09:35:38;95497.63;;;24.23;nan
4617;BME280;2321;42.704;23.384;2022-07-06T09:38:09;95493.28;;;24.27;nan
4617;BME280;2321;42.704;23.384;2022-07-06T09:40:38;95484.31;;;24.32;nan
4617;BME280;2321;42.704;23.384;2022-07-06T09:43:10;95481.00;;;24.40;nan
4617;BME280;2321;42.704;23.384;2022-07-06T09:45:38;95476.09;;;24.42;nan
4617;BME280;2321;42.704;23.384;2022-07-06T09:48:06;95475.25;;;24.47;nan
4617;BME280;2321;42.704;23.384;2022-07-06T09:50:44;95474.38;;;24.62;nan
4617;BME280;2321;42.704;23.384;2022-07-06T09:53:13;95465.09;;;24.63;nan
4617;BME280;2321;42.704;23.384;2022-07-06T09:55:43;95468.09;;;24.62;nan
4617;BME280;2321;42.704;23.384;2022-07-06T09:58:10;95467.50;;;24.70;nan
4617;BME280;2321;42.704;23.384;2022-07-06T10:00:37;95465.81;;;24.79;nan
4617;BME280;2321;42.704;23.384;2022-07-06T10:03:04;95460.38;;;24.79;nan
4617;BME280;2321;42.704;23.384;2022-07-06T10:05:32;95456.19;;;24.92;nan
4617;BME280;2321;42.704;23.384;2022-07-06T10:08:00;95460.19;;;25.06;nan
4617;BME280;2321;42.704;23.384;2022-07-06T10:10:29;95465.06;;;25.14;nan
4617;BME280;2321;42.704;23.384;2022-07-06T10:12:58;95469.84;;;25.28;nan
4617;BME280;2321;42.704;23.384;2022-07-06T10:15:26;95461.38;;;25.29;nan
4617;BME280;2321;42.704;23.384;2022-07-06T10:17:55;95473.56;;;25.37;nan
4617;BME280;2321;42.704;23.384;2022-07-06T10:20:22;95474.56;;;25.46;nan
4617;BME280;2321;42.704;23.384;2022-07-06T10:22:49;95463.97;;;25.45;nan
4617;BME280;2321;42.704;23.384;2022-07-06T10:25:17;95474.66;;;25.66;nan
4617;BME280;2321;42.704;23.384;2022-07-06T10:27:47;95463.22;;;25.64;nan
4617;BME280;2321;42.704;23.384;2022-07-06T10:30:15;95448.22;;;25.66;nan
4617;BME280;2321;42.704;23.384;2022-07-06T10:32:44;95458.47;;;25.80;nan
4617;BME280;2321;42.704;23.384;2022-07-06T10:35:13;95459.84;;;25.77;nan
4617;BME280;2321;42.704;23.384;2022-07-06T10:37:40;95464.50;;;25.77;nan
4617;BME280;2321;42.704;23.384;2022-07-06T10:40:08;95454.66;;;25.81;nan
4617;BME280;2321;42.704;23.384;2022-07-06T10:42:58;95448.13;;;25.77;nan
4617;BME280;2321;42.704;23.384;2022-07-06T10:45:50;95454.34;;;25.83;nan
4617;BME280;2321;42.704;23.384;2022-07-06T10:48:17;95455.09;;;25.88;nan
4617;BME280;2321;42.704;23.384;2022-07-06T10:50:47;95441.88;;;26.01;nan
4617;BME280;2321;42.704;23.384;2022-07-06T10:53:15;95446.88;;;26.38;nan
4617;BME280;2321;42.704;23.384;2022-07-06T10:55:44;95445.19;;;26.42;nan
4617;BME280;2321;42.704;23.384;2022-07-06T10:58:14;95447.50;;;26.54;nan
4617;BME280;2321;42.704;23.384;2022-07-06T11:00:51;95450.41;;;26.38;nan
4617;BME280;2321;42.704;23.384;2022-07-06T11:03:33;95438.53;;;26.29;nan
4617;BME280;2321;42.704;23.384;2022-07-06T11:06:00;95441.56;;;26.27;nan
4617;BME280;2321;42.704;23.384;2022-07-06T11:08:44;95444.94;;;26.38;nan
4617;BME280;2321;42.704;23.384;2022-07-06T11:11:11;95444.59;;;26.45;nan
4617;BME280;2321;42.704;23.384;2022-07-06T11:13:47;95437.16;;;26.51;nan
4617;BME280;2321;42.704;23.384;2022-07-06T11:16:15;95443.75;;;26.69;nan
4617;BME280;2321;42.704;23.384;2022-07-06T11:18:46;95440.63;;;26.57;nan
4617;BME280;2321;42.704;23.384;2022-07-06T11:21:21;95443.00;;;26.63;nan
4617;BME280;2321;42.704;23.384;2022-07-06T11:23:50;95438.06;;;26.65;nan
4617;BME280;2321;42.704;23.384;2022-07-06T11:26:17;95439.00;;;26.75;nan
4617;BME280;2321;42.704;23.384;2022-07-06T11:28:47;95429.72;;;26.76;nan
4617;BME280;2321;42.704;23.384;2022-07-06T11:31:16;95418.72;;;26.81;nan
4617;BME280;2321;42.704;23.384;2022-07-06T11:33:47;95422.16;;;26.87;nan
4617;BME280;2321;42.704;23.384;2022-07-06T11:36:15;95423.94;;;26.97;nan
4617;BME280;2321;42.704;23.384;2022-07-06T11:38:43;95423.88;;;26.83;nan
4617;BME280;2321;42.704;23.384;2022-07-06T11:41:11;95422.66;;;26.56;nan
4617;BME280;2321;42.704;23.384;2022-07-06T11:43:40;95414.38;;;26.61;nan
4617;BME280;2321;42.704;23.384;2022-07-06T11:46:28;95418.44;;;26.63;nan
4617;BME280;2321;42.704;23.384;2022-07-06T11:48:57;95414.88;;;26.63;nan
4617;BME280;2321;42.704;23.384;2022-07-06T11:51:26;95372.44;;;26.32;nan
4617;BME280;2321;42.704;23.384;2022-07-06T11:53:55;95393.72;;;26.54;nan
4617;BME280;2321;42.704;23.384;2022-07-06T11:56:22;95400.22;;;26.59;nan
4617;BME280;2321;42.704;23.384;2022-07-06T11:58:51;95392.44;;;26.66;nan
4617;BME280;2321;42.704;23.384;2022-07-06T12:01:19;95398.13;;;26.89;nan
4617;BME280;2321;42.704;23.384;2022-07-06T12:03:47;95391.59;;;27.04;nan
4617;BME280;2321;42.704;23.384;2022-07-06T12:06:17;95386.91;;;27.05;nan
4617;BME280;2321;42.704;23.384;2022-07-06T12:08:45;95393.06;;;26.96;nan
4617;BME280;2321;42.704;23.384;2022-07-06T12:11:20;95395.06;;;26.91;nan
4617;BME280;2321;42.704;23.384;2022-07-06T12:13:49;95397.44;;;26.97;nan
4617;BME280;2321;42.704;23.384;2022-07-06T12:16:16;95390.78;;;27.04;nan
4617;BME280;2321;42.704;23.384;2022-07-06T12:18:44;95390.75;;;27.23;nan
4617;BME280;2321;42.704;23.384;2022-07-06T12:21:15;95400.06;;;27.22;nan
4617;BME280;2321;42.704;23.384;2022-07-06T12:23:45;95396.03;;;27.14;nan
4617;BME280;2321;42.704;23.384;2022-07-06T12:26:13;95399.97;;;27.08;nan
4617;BME280;2321;42.704;23.384;2022-07-06T12:28:41;95407.97;;;27.04;nan
4617;BME280;2321;42.704;23.384;2022-07-06T12:31:09;95399.97;;;27.08;nan
4617;BME280;2321;42.704;23.384;2022-07-06T12:33:36;95395.75;;;27.02;nan
4617;BME280;2321;42.704;23.384;2022-07-06T12:36:10;95395.38;;;26.89;nan
4617;BME280;2321;42.704;23.384;2022-07-06T12:38:46;95395.91;;;26.91;nan
4617;BME280;2321;42.704;23.384;2022-07-06T12:41:30;95387.53;;;27.02;nan
4617;BME280;2321;42.704;23.384;2022-07-06T12:44:05;95391.59;;;27.04;nan
4617;BME280;2321;42.704;23.384;2022-07-06T12:46:34;95385.59;;;27.02;nan
4617;BME280;2321;42.704;23.384;2022-07-06T12:49:10;95368.38;;;27.21;nan
4617;BME280;2321;42.704;23.384;2022-07-06T12:51:54;95383.34;;;27.24;nan
4617;BME280;2321;42.704;23.384;2022-07-06T12:54:24;95372.41;;;27.24;nan
4617;BME280;2321;42.704;23.384;2022-07-06T12:56:59;95364.03;;;27.20;nan
4617;BME280;2321;42.704;23.384;2022-07-06T12:59:28;95370.94;;;27.12;nan
4617;BME280;2321;42.704;23.384;2022-07-06T13:01:56;95363.00;;;27.30;nan
4617;BME280;2321;42.704;23.384;2022-07-06T13:04:23;95371.84;;;27.55;nan
4617;BME280;2321;42.704;23.384;2022-07-06T13:06:50;95374.28;;;27.42;nan
4617;BME280;2321;42.704;23.384;2022-07-06T13:09:17;95372.84;;;27.45;nan
4617;BME280;2321;42.704;23.384;2022-07-06T13:11:46;95373.78;;;27.40;nan
4617;BME280;2321;42.704;23.384;2022-07-06T13:14:13;95364.75;;;27.40;nan
4617;BME280;2321;42.704;23.384;2022-07-06T13:16:41;95367.00;;;27.38;nan
4617;BME280;2321;42.704;23.384;2022-07-06T13:19:08;95367.50;;;27.40;nan
4617;BME280;2321;42.704;23.384;2022-07-06T13:21:35;95369.13;;;27.41;nan
4617;BME280;2321;42.704;23.384;2022-07-06T13:24:02;95364.47;;;27.41;nan
4617;BME280;2321;42.704;23.384;2022-07-06T13:26:30;95359.78;;;27.42;nan
4617;BME280;2321;42.704;23.384;2022-07-06T13:29:00;95357.25;;;27.46;nan
4617;BME280;2321;42.704;23.384;2022-07-06T13:31:27;95353.44;;;27.47;nan
4617;BME280;2321;42.704;23.384;2022-07-06T13:33:54;95353.31;;;27.52;nan
4617;BME280;2321;42.704;23.384;2022-07-06T13:36:21;95347.06;;;27.66;nan
4617;BME280;2321;42.704;23.384;2022-07-06T13:38:49;95352.50;;;27.94;nan
4617;BME280;2321;42.704;23.384;2022-07-06T13:41:16;95356.47;;;28.02;nan